Time;durP1;ratioP1;P1;durP2;ratioP2;P2;SDS_P1;SDS_P2;PMS_P1;PMS_P2;Temp;Humidity;BMP_temperature;BMP_pressure;BME280_temperature;BME280_humidity;BME280_pressure;Samples;Min_cycle;Max_cycle;Signal;HPM_P1;HPM_P2
2022/12/28 00:01:25;;;;;;;11.38;7.72;;;;;;;;;;4990128;28;20041;-81
2022/12/28 00:06:37;;;;;;;12.75;8.10;;;;;;;;;;5005187;28;20153;-85
2022/12/28 00:09:03;;;;;;;14.90;8.77;;;;;;;;;;4989200;28;20391;-82
2022/12/28 00:11:29;;;;;;;12.40;7.78;;;;;;;;;;5009648;28;20034;-82
2022/12/28 00:13:54;;;;;;;11.98;8.75;;;;;;;;;;5007681;28;20038;-81
2022/12/28 00:16:36;;;;;;;11.65;7.93;;;;;;;;;;5011537;28;20068;-82
2022/12/28 00:19:03;;;;;;;12.40;8.70;;;;;;;;;;5013985;28;20049;-82
2022/12/28 00:21:29;;;;;;;13.35;9.13;;;;;;;;;;5042634;28;20017;-81
2022/12/28 00:23:55;;;;;;;14.13;8.60;;;;;;;;;;5016902;28;20050;-81
2022/12/28 00:26:21;;;;;;;13.00;8.27;;;;;;;;;;5034044;28;20037;-82
2022/12/28 00:31:31;;;;;;;13.57;8.98;;;;;;;;;;5035242;28;20043;-81
2022/12/28 00:33:57;;;;;;;;;;;;;;;;;;5045903;28;20127;-81
2022/12/28 00:36:22;;;;;;;13.32;8.63;;;;;;;;;;5048710;28;19925;-81
2022/12/28 00:38:48;;;;;;;14.27;8.88;;;;;;;;;;5051211;28;20033;-81
2022/12/28 00:41:13;;;;;;;13.32;8.60;;;;;;;;;;5012776;28;20771;-81
2022/12/28 00:43:41;;;;;;;14.63;8.88;;;;;;;;;;5046515;28;20032;-81
2022/12/28 00:46:07;;;;;;;15.68;9.85;;;;;;;;;;5030583;28;20159;-81
2022/12/28 00:48:33;;;;;;;13.25;8.82;;;;;;;;;;5031077;28;20025;-81
2022/12/28 00:51:06;;;;;;;15.50;9.63;;;;;;;;;;5011125;28;20040;-83
2022/12/28 00:53:31;;;;;;;15.00;9.43;;;;;;;;;;5029912;28;20454;-80
2022/12/28 00:55:57;;;;;;;;;;;;;;;;;;5031010;28;20033;-81
2022/12/28 00:58:23;;;;;;;17.30;10.70;;;;;;;;;;5048766;28;19919;-81
2022/12/28 01:00:49;;;;;;;16.67;10.07;;;;;;;;;;5031408;28;20029;-81
2022/12/28 01:03:14;;;;;;;17.02;10.00;;;;;;;;;;5030837;28;20067;-81
2022/12/28 01:05:40;;;;;;;17.85;10.48;;;;;;;;;;5030179;28;20071;-81
2022/12/28 01:08:07;;;;;;;16.77;10.82;;;;;;;;;;5015739;28;20029;-81
2022/12/28 01:10:32;;;;;;;18.65;10.80;;;;;;;;;;5018271;28;20450;-82
2022/12/28 01:12:58;;;;;;;18.52;10.63;;;;;;;;;;5017982;28;20518;-82
2022/12/28 01:15:23;;;;;;;20.52;11.25;;;;;;;;;;5049290;28;20025;-81
2022/12/28 01:17:49;;;;;;;19.10;10.75;;;;;;;;;;5032007;28;20076;-81
2022/12/28 01:20:14;;;;;;;18.85;10.50;;;;;;;;;;5030188;28;20037;-81
2022/12/28 01:22:39;;;;;;;19.75;11.15;;;;;;;;;;5034689;28;20037;-81
2022/12/28 01:25:05;;;;;;;17.92;10.82;;;;;;;;;;5050489;28;20029;-81
2022/12/28 01:27:31;;;;;;;19.85;10.90;;;;;;;;;;5031968;28;20036;-82
2022/12/28 01:29:56;;;;;;;17.48;10.05;;;;;;;;;;5052095;28;20025;-82
2022/12/28 01:32:22;;;;;;;18.98;10.85;;;;;;;;;;5049882;28;20033;-81
2022/12/28 01:37:32;;;;;;;18.33;10.90;;;;;;;;;;5050355;28;20071;-81
2022/12/28 01:39:58;;;;;;;19.67;11.18;;;;;;;;;;5030711;28;20040;-81
2022/12/28 01:42:25;;;;;;;20.75;10.88;;;;;;;;;;5030888;28;20531;-81
2022/12/28 01:44:51;;;;;;;19.27;11.10;;;;;;;;;;5047366;28;20075;-81
2022/12/28 01:47:22;;;;;;;21.15;11.75;;;;;;;;;;5033752;28;20037;-81
2022/12/28 01:55:42;;;;;;;18.40;9.98;;;;;;;;;;5018356;28;20028;-81
2022/12/28 01:58:08;;;;;;;;;;;;;;;;;;5055124;28;20453;-81
2022/12/28 02:00:34;;;;;;;18.83;10.27;;;;;;;;;;5028758;28;19913;-81
2022/12/28 02:03:00;;;;;;;19.08;11.52;;;;;;;;;;5031290;28;20017;-81
2022/12/28 02:05:27;;;;;;;17.90;10.95;;;;;;;;;;5032843;28;20094;-81
2022/12/28 02:07:55;;;;;;;18.20;10.13;;;;;;;;;;5049160;28;20434;-82
2022/12/28 02:10:22;;;;;;;20.20;10.80;;;;;;;;;;5050162;28;20043;-81
2022/12/28 02:12:47;;;;;;;22.50;11.10;;;;;;;;;;5030658;28;20013;-82
2022/12/28 02:15:13;;;;;;;20.52;11.98;;;;;;;;;;5014747;28;20588;-81
2022/12/28 02:17:38;;;;;;;18.13;10.80;;;;;;;;;;5026225;28;20048;-81
2022/12/28 02:20:05;;;;;;;22.20;11.73;;;;;;;;;;5049193;28;20063;-81
2022/12/28 02:22:39;;;;;;;20.30;10.98;;;;;;;;;;5015430;28;20118;-81
2022/12/28 02:28:15;;;;;;;17.48;11.02;;;;;;;;;;5016647;28;20028;-82
2022/12/28 02:34:00;;;;;;;19.00;11.52;;;;;;;;;;5030017;28;20396;-81
2022/12/28 02:36:27;;;;;;;21.70;11.82;;;;;;;;;;5013782;28;20044;-82
2022/12/28 02:38:54;;;;;;;21.80;12.23;;;;;;;;;;5015211;28;20021;-81
2022/12/28 02:41:23;;;;;;;17.67;11.05;;;;;;;;;;5023115;28;20153;-81
2022/12/28 02:43:48;;;;;;;16.80;10.40;;;;;;;;;;5025800;28;20024;-81
2022/12/28 02:52:01;;;;;;;17.27;10.77;;;;;;;;;;5030196;28;20029;-81
2022/12/28 02:57:38;;;;;;;16.77;9.57;;;;;;;;;;5048906;28;20040;-81
2022/12/28 03:00:06;;;;;;;13.68;8.65;;;;;;;;;;5015970;28;20032;-81
2022/12/28 03:02:31;;;;;;;15.45;9.38;;;;;;;;;;5015615;28;20393;-83
2022/12/28 03:05:01;;;;;;;14.10;9.07;;;;;;;;;;5030845;28;20053;-82
2022/12/28 03:10:40;;;;;;;16.08;9.27;;;;;;;;;;5030483;28;20080;-80
2022/12/28 03:13:41;;;;;;;13.95;8.38;;;;;;;;;;5032035;28;20516;-81
2022/12/28 03:15:54;;;;;;;16.05;9.15;;;;;;;;;;5006215;28;20030;-82
2022/12/28 03:32:02;;;;;;;16.50;9.55;;;;;;;;;;4996788;28;20037;-82
2022/12/28 03:34:28;;;;;;;13.85;8.07;;;;;;;;;;4989640;28;20830;-82
2022/12/28 03:36:53;;;;;;;16.20;9.65;;;;;;;;;;4989281;28;20516;-81
2022/12/28 03:39:21;;;;;;;13.05;8.20;;;;;;;;;;5011910;28;20504;-82
2022/12/28 03:44:46;;;;;;;12.90;7.72;;;;;;;;;;5022933;28;20100;-82
2022/12/28 03:47:12;;;;;;;12.88;8.27;;;;;;;;;;4987873;28;20022;-82
2022/12/28 03:49:38;;;;;;;13.40;8.55;;;;;;;;;;4998544;28;20025;-83
2022/12/28 03:52:04;;;;;;;14.10;8.30;;;;;;;;;;5009103;28;20022;-82
2022/12/28 03:54:30;;;;;;;12.02;7.78;;;;;;;;;;4992970;28;20042;-81
2022/12/28 03:56:56;;;;;;;13.65;7.90;;;;;;;;;;4993108;28;20204;-81
2022/12/28 03:59:26;;;;;;;11.45;7.25;;;;;;;;;;4991794;28;20040;-82
2022/12/28 04:01:53;;;;;;;11.43;6.78;;;;;;;;;;5002824;28;20100;-82
2022/12/28 04:07:03;;;;;;;12.73;7.57;;;;;;;;;;5007614;28;20096;-82
2022/12/28 04:09:31;;;;;;;10.50;6.85;;;;;;;;;;5008446;28;20029;-81
2022/12/28 04:11:57;;;;;;;9.63;6.47;;;;;;;;;;5010050;28;20036;-81
2022/12/28 04:14:35;;;;;;;7.97;5.10;;;;;;;;;;5009165;28;20036;-81
2022/12/28 04:17:00;;;;;;;10.82;6.90;;;;;;;;;;5005653;28;20396;-81
2022/12/28 04:19:26;;;;;;;11.10;7.22;;;;;;;;;;5005589;28;20040;-82
2022/12/28 04:21:52;;;;;;;11.50;6.65;;;;;;;;;;5005240;28;20084;-82
2022/12/28 04:24:17;;;;;;;8.65;5.78;;;;;;;;;;4988218;28;20121;-83
2022/12/28 04:26:43;;;;;;;9.45;6.05;;;;;;;;;;5004923;28;20038;-82
2022/12/28 04:29:09;;;;;;;9.77;6.18;;;;;;;;;;5007001;28;20030;-82
2022/12/28 04:31:58;;;;;;;10.30;5.80;;;;;;;;;;5004601;28;20056;-81
2022/12/28 04:34:24;;;;;;;10.93;6.38;;;;;;;;;;5016175;28;20096;-82
2022/12/28 04:42:34;;;;;;;10.77;7.10;;;;;;;;;;5008512;28;20037;-80
2022/12/28 04:44:59;;;;;;;9.93;6.10;;;;;;;;;;4990300;28;20041;-80
2022/12/28 04:50:09;;;;;;;14.55;7.38;;;;;;;;;;5008382;28;20030;-79
2022/12/28 04:52:34;;;;;;;14.90;8.85;;;;;;;;;;5016088;28;20036;-81
2022/12/28 04:54:59;;;;;;;14.30;8.52;;;;;;;;;;5009690;28;20026;-80
2022/12/28 04:57:25;;;;;;;12.60;7.40;;;;;;;;;;5008405;28;20691;-80
2022/12/28 04:59:50;;;;;;;14.77;8.18;;;;;;;;;;5006088;28;20045;-82
2022/12/28 05:05:00;;;;;;;13.15;6.93;;;;;;;;;;5012526;28;20091;-81
2022/12/28 05:07:26;;;;;;;15.07;7.95;;;;;;;;;;4998512;28;20021;-81
2022/12/28 05:09:51;;;;;;;15.93;7.75;;;;;;;;;;5019219;28;20033;-80
2022/12/28 05:12:17;;;;;;;14.45;7.28;;;;;;;;;;5015700;28;20040;-80
2022/12/28 05:14:43;;;;;;;12.95;7.18;;;;;;;;;;5019921;28;20040;-80
2022/12/28 05:17:08;;;;;;;;;;;;;;;;;;5032749;28;20171;-80
2022/12/28 05:19:34;;;;;;;12.13;7.20;;;;;;;;;;5048094;28;19951;-80
2022/12/28 05:21:59;;;;;;;14.20;7.93;;;;;;;;;;5029078;28;20024;-82
2022/12/28 05:24:25;;;;;;;14.93;8.38;;;;;;;;;;5030777;28;20041;-82
2022/12/28 05:26:50;;;;;;;13.52;7.78;;;;;;;;;;5047501;28;20021;-81
2022/12/28 05:29:17;;;;;;;14.18;8.15;;;;;;;;;;5029185;28;20029;-82
2022/12/28 05:31:42;;;;;;;11.75;7.25;;;;;;;;;;5029157;28;20021;-81
2022/12/28 05:34:08;;;;;;;13.02;6.88;;;;;;;;;;5046410;28;20357;-82
2022/12/28 05:36:36;;;;;;;12.88;8.23;;;;;;;;;;5047858;28;20086;-81
2022/12/28 05:41:46;;;;;;;13.40;7.68;;;;;;;;;;5031005;28;20514;-82
2022/12/28 05:44:11;;;;;;;14.07;8.35;;;;;;;;;;5044829;28;20033;-81
2022/12/28 05:46:37;;;;;;;15.52;9.65;;;;;;;;;;5044810;28;20025;-81
2022/12/28 05:49:02;;;;;;;14.75;9.07;;;;;;;;;;5028985;28;20456;-81
2022/12/28 05:51:29;;;;;;;13.40;7.97;;;;;;;;;;5044900;28;20029;-81
2022/12/28 05:53:54;;;;;;;;;;;;;;;;;;5031391;28;20029;-79
2022/12/28 05:56:20;;;;;;;12.52;7.30;;;;;;;;;;5048206;28;19924;-81
2022/12/28 05:58:46;;;;;;;13.05;8.40;;;;;;;;;;5031114;28;20032;-81
2022/12/28 06:01:13;;;;;;;10.57;7.10;;;;;;;;;;5048347;28;20068;-80
2022/12/28 06:03:38;;;;;;;15.45;8.52;;;;;;;;;;5030714;28;20140;-80
2022/12/28 06:11:33;;;;;;;12.50;8.05;;;;;;;;;;5049384;28;20404;-81
2022/12/28 06:13:58;;;;;;;13.02;8.23;;;;;;;;;;5031319;28;20032;-81
2022/12/28 06:16:25;;;;;;;13.90;7.57;;;;;;;;;;5017252;28;20052;-81
2022/12/28 06:18:53;;;;;;;16.63;8.20;;;;;;;;;;5033118;28;20056;-81
2022/12/28 06:21:26;;;;;;;13.25;8.52;;;;;;;;;;5049726;28;20043;-81
2022/12/28 06:23:52;;;;;;;10.40;6.43;;;;;;;;;;5030321;28;20049;-81
2022/12/28 06:26:18;;;;;;;12.63;7.50;;;;;;;;;;5045830;28;20067;-82
2022/12/28 06:28:44;;;;;;;11.48;6.85;;;;;;;;;;5014915;28;20086;-82
2022/12/28 06:31:13;;;;;;;14.38;6.10;;;;;;;;;;5032448;28;20364;-81
2022/12/28 06:33:39;;;;;;;10.77;6.95;;;;;;;;;;5043440;28;20037;-82
2022/12/28 06:36:04;;;;;;;11.75;7.75;;;;;;;;;;5051009;28;20519;-82
2022/12/28 06:38:31;;;;;;;11.88;7.75;;;;;;;;;;5033695;28;20040;-83
2022/12/28 06:41:03;;;;;;;11.98;7.20;;;;;;;;;;5030535;28;20021;-82
2022/12/28 06:43:32;;;;;;;11.90;7.95;;;;;;;;;;5042090;28;20053;-81
2022/12/28 06:45:58;;;;;;;10.73;6.78;;;;;;;;;;5048563;28;20523;-81
2022/12/28 06:48:23;;;;;;;13.13;7.07;;;;;;;;;;5046991;28;20053;-81
2022/12/28 06:50:56;;;;;;;9.00;5.65;;;;;;;;;;5014308;28;20023;-82
2022/12/28 06:56:07;;;;;;;12.88;6.88;;;;;;;;;;5042556;28;20083;-81
2022/12/28 07:01:17;;;;;;;9.93;6.35;;;;;;;;;;5046149;28;20411;-80
2022/12/28 07:03:43;;;;;;;10.82;6.65;;;;;;;;;;5050111;28;20036;-82
2022/12/28 07:06:08;;;;;;;11.77;6.82;;;;;;;;;;5033302;28;20159;-82
2022/12/28 07:08:34;;;;;;;10.10;6.22;;;;;;;;;;5049831;28;20112;-82
2022/12/28 07:11:02;;;;;;;10.25;6.38;;;;;;;;;;5030248;28;20032;-82
2022/12/28 07:13:28;;;;;;;9.02;5.50;;;;;;;;;;5031742;28;20047;-82
2022/12/28 07:15:53;;;;;;;7.93;4.95;;;;;;;;;;5031122;28;20032;-82
2022/12/28 07:18:19;;;;;;;9.88;6.00;;;;;;;;;;5050457;28;20052;-82
2022/12/28 07:20:44;;;;;;;8.38;5.05;;;;;;;;;;5051515;28;20037;-81
2022/12/28 07:23:10;;;;;;;11.20;6.70;;;;;;;;;;5048937;28;20035;-82
2022/12/28 07:25:35;;;;;;;8.80;5.85;;;;;;;;;;5001222;28;20055;-80
2022/12/28 07:28:00;;;;;;;7.05;4.30;;;;;;;;;;5052833;28;20068;-83
2022/12/28 07:30:26;;;;;;;9.65;5.15;;;;;;;;;;5052868;28;20037;-83
2022/12/28 07:32:51;;;;;;;7.72;4.80;;;;;;;;;;5051061;28;20035;-81
2022/12/28 07:35:17;;;;;;;9.70;5.32;;;;;;;;;;5053499;28;20072;-82
2022/12/28 07:37:42;;;;;;;10.15;5.93;;;;;;;;;;5052675;28;20098;-82
2022/12/28 07:40:08;;;;;;;9.65;5.30;;;;;;;;;;5034240;28;20082;-82
2022/12/28 07:42:33;;;;;;;9.68;6.20;;;;;;;;;;5016163;28;20121;-84
2022/12/28 07:44:59;;;;;;;8.27;5.18;;;;;;;;;;5049170;28;20471;-82
2022/12/28 07:47:24;;;;;;;9.25;5.18;;;;;;;;;;5022507;28;20029;-82
2022/12/28 07:49:50;;;;;;;8.75;5.43;;;;;;;;;;5048369;28;20572;-81
2022/12/28 07:52:15;;;;;;;8.95;5.55;;;;;;;;;;5029439;28;20036;-82
2022/12/28 07:54:41;;;;;;;10.80;7.05;;;;;;;;;;5047755;28;20141;-81
2022/12/28 07:57:06;;;;;;;9.68;6.32;;;;;;;;;;5030983;28;20035;-82
2022/12/28 07:59:32;;;;;;;9.80;5.75;;;;;;;;;;5048467;28;20115;-82
2022/12/28 08:01:57;;;;;;;10.10;6.63;;;;;;;;;;5029797;28;20037;-82
2022/12/28 08:04:23;;;;;;;9.23;6.20;;;;;;;;;;5047654;28;20372;-81
2022/12/28 08:06:48;;;;;;;9.65;4.97;;;;;;;;;;5029183;28;20472;-83
2022/12/28 08:09:14;;;;;;;11.50;6.78;;;;;;;;;;5046981;28;20044;-82
2022/12/28 08:11:40;;;;;;;7.70;4.70;;;;;;;;;;5046549;28;20055;-82
2022/12/28 08:14:06;;;;;;;8.75;5.40;;;;;;;;;;5029852;28;20463;-82
2022/12/28 08:16:33;;;;;;;10.60;5.30;;;;;;;;;;5029583;28;20055;-81
2022/12/28 08:18:58;;;;;;;8.65;4.93;;;;;;;;;;5046776;28;20037;-82
2022/12/28 08:21:25;;;;;;;7.90;5.07;;;;;;;;;;5049711;28;20056;-81
2022/12/28 08:23:51;;;;;;;8.70;5.50;;;;;;;;;;5047430;28;20040;-82
2022/12/28 08:26:18;;;;;;;9.27;5.43;;;;;;;;;;5047846;28;20108;-82
2022/12/28 08:28:44;;;;;;;8.38;5.13;;;;;;;;;;5029870;28;20033;-81
2022/12/28 08:31:10;;;;;;;8.27;4.55;;;;;;;;;;5030884;28;20079;-82
2022/12/28 08:33:36;;;;;;;8.13;4.90;;;;;;;;;;5030420;28;20480;-81
2022/12/28 08:36:02;;;;;;;6.53;4.40;;;;;;;;;;5027347;28;20025;-81
2022/12/28 08:38:27;;;;;;;;;;;;;;;;;;5031834;28;20033;-82
2022/12/28 08:40:54;;;;;;;7.38;4.40;;;;;;;;;;5046412;28;19916;-82
2022/12/28 08:43:20;;;;;;;7.90;4.50;;;;;;;;;;5028274;28;20029;-81
2022/12/28 08:45:55;;;;;;;6.70;4.47;;;;;;;;;;5048048;28;20025;-81
2022/12/28 08:48:20;;;;;;;7.65;4.82;;;;;;;;;;5029423;28;20063;-82
2022/12/28 08:50:46;;;;;;;6.57;4.45;;;;;;;;;;5030571;28;20040;-82
2022/12/28 08:53:11;;;;;;;6.18;4.18;;;;;;;;;;5042006;28;20033;-82
2022/12/28 08:58:21;;;;;;;6.07;4.10;;;;;;;;;;5048137;28;20524;-83
2022/12/28 09:00:46;;;;;;;6.32;3.80;;;;;;;;;;5049501;28;20029;-82
2022/12/28 09:03:12;;;;;;;5.50;3.90;;;;;;;;;;5029615;28;20037;-82
2022/12/28 09:05:38;;;;;;;6.53;3.55;;;;;;;;;;5014285;28;20504;-82
2022/12/28 09:08:03;;;;;;;5.95;4.05;;;;;;;;;;5020982;28;20035;-83
2022/12/28 09:10:29;;;;;;;6.15;4.13;;;;;;;;;;5014995;28;20511;-82
2022/12/28 09:12:55;;;;;;;5.20;3.65;;;;;;;;;;5046857;28;20036;-83
2022/12/28 09:15:20;;;;;;;5.45;3.47;;;;;;;;;;5047663;28;20043;-84
2022/12/28 09:20:30;;;;;;;4.97;3.35;;;;;;;;;;5032290;28;20128;-80
2022/12/28 09:22:56;;;;;;;5.00;3.40;;;;;;;;;;5045677;28;20111;-83
2022/12/28 09:25:21;;;;;;;4.68;3.15;;;;;;;;;;5030570;28;20124;-83
2022/12/28 09:27:47;;;;;;;5.60;3.83;;;;;;;;;;5028883;28;20028;-82
2022/12/28 09:30:13;;;;;;;6.07;3.30;;;;;;;;;;5048300;28;20358;-82
2022/12/28 09:32:38;;;;;;;6.47;4.30;;;;;;;;;;5050815;28;20024;-82
2022/12/28 09:35:04;;;;;;;6.18;4.00;;;;;;;;;;5052488;28;20035;-84
2022/12/28 09:37:30;;;;;;;5.65;3.70;;;;;;;;;;5031956;28;20114;-82
2022/12/28 09:39:55;;;;;;;5.55;3.72;;;;;;;;;;5049433;28;20043;-82
2022/12/28 09:42:23;;;;;;;4.75;3.40;;;;;;;;;;5054278;28;20036;-83
2022/12/28 09:44:48;;;;;;;5.40;3.30;;;;;;;;;;5046536;28;20028;-82
2022/12/28 09:47:16;;;;;;;5.35;3.25;;;;;;;;;;5052496;28;20028;-82
2022/12/28 09:49:44;;;;;;;4.72;3.30;;;;;;;;;;5033275;28;20040;-83
2022/12/28 09:52:13;;;;;;;5.13;3.00;;;;;;;;;;5033453;28;20048;-83
2022/12/28 09:54:39;;;;;;;5.90;3.78;;;;;;;;;;5047473;28;20523;-81
2022/12/28 09:57:08;;;;;;;6.30;3.65;;;;;;;;;;5017419;28;20084;-81
2022/12/28 09:59:34;;;;;;;6.03;3.80;;;;;;;;;;5015021;28;20033;-81
2022/12/28 10:02:00;;;;;;;5.07;3.53;;;;;;;;;;5034385;28;20024;-82
2022/12/28 10:07:10;;;;;;;5.22;2.88;;;;;;;;;;5048445;28;20029;-84
2022/12/28 10:09:35;;;;;;;5.15;3.17;;;;;;;;;;5014929;28;20036;-83
2022/12/28 10:12:08;;;;;;;4.97;3.33;;;;;;;;;;5017749;28;20033;-82
2022/12/28 10:14:34;;;;;;;5.13;3.35;;;;;;;;;;5049196;28;20084;-82
2022/12/28 10:16:59;;;;;;;5.95;3.05;;;;;;;;;;5021368;28;20112;-80
2022/12/28 10:19:26;;;;;;;5.03;3.20;;;;;;;;;;5010489;28;20040;-81
2022/12/28 10:22:01;;;;;;;4.20;2.83;;;;;;;;;;5009105;28;20045;-83
2022/12/28 10:24:27;;;;;;;4.03;2.65;;;;;;;;;;5004634;28;20040;-83
2022/12/28 10:26:52;;;;;;;3.85;2.80;;;;;;;;;;5009921;28;20104;-83
2022/12/28 10:29:19;;;;;;;5.45;3.33;;;;;;;;;;5009188;28;20227;-81
2022/12/28 10:34:55;;;;;;;4.72;3.47;;;;;;;;;;5008140;28;20044;-82
2022/12/28 10:37:20;;;;;;;5.72;2.60;;;;;;;;;;5006508;28;20038;-82
2022/12/28 10:39:56;;;;;;;4.22;2.78;;;;;;;;;;5007815;28;20164;-81
2022/12/28 10:42:25;;;;;;;5.47;3.42;;;;;;;;;;5009701;28;20505;-82
2022/12/28 10:44:51;;;;;;;3.88;2.70;;;;;;;;;;4992502;28;20409;-82
2022/12/28 10:47:34;;;;;;;7.78;3.30;;;;;;;;;;5006875;28;20045;-81
2022/12/28 10:50:00;;;;;;;4.20;2.67;;;;;;;;;;5008211;28;20041;-82
2022/12/28 10:52:25;;;;;;;6.82;3.33;;;;;;;;;;5007955;28;20013;-81
2022/12/28 10:54:51;;;;;;;4.03;2.25;;;;;;;;;;5008727;28;20508;-82
2022/12/28 10:57:17;;;;;;;7.07;2.85;;;;;;;;;;4991523;28;20036;-82
2022/12/28 10:59:42;;;;;;;;;;;;;;;;;;5009159;28;20091;-81
2022/12/28 11:02:34;;;;;;;6.43;2.90;;;;;;;;;;5010165;28;20003;-82
2022/12/28 11:05:01;;;;;;;8.02;3.75;;;;;;;;;;5004118;28;20136;-82
2022/12/28 11:07:26;;;;;;;4.38;3.05;;;;;;;;;;5008571;28;20029;-82
2022/12/28 11:09:52;;;;;;;7.93;2.88;;;;;;;;;;5008733;28;20026;-82
2022/12/28 11:12:24;;;;;;;7.65;2.75;;;;;;;;;;5007890;28;20520;-82
2022/12/28 11:14:51;;;;;;;7.05;2.70;;;;;;;;;;5008199;28;20864;-80
2022/12/28 11:17:20;;;;;;;4.03;2.67;;;;;;;;;;5026833;28;20396;-81
2022/12/28 11:19:46;;;;;;;5.35;2.60;;;;;;;;;;5027106;28;20402;-81
2022/12/28 11:22:12;;;;;;;4.32;2.63;;;;;;;;;;5031572;28;20518;-83
2022/12/28 11:24:40;;;;;;;6.30;2.80;;;;;;;;;;5030117;28;20071;-82
2022/12/28 11:27:08;;;;;;;3.75;2.05;;;;;;;;;;5031973;28;20036;-82
2022/12/28 11:29:34;;;;;;;7.05;3.25;;;;;;;;;;5031773;28;20033;-82
2022/12/28 11:32:07;;;;;;;5.50;3.15;;;;;;;;;;5035095;28;20033;-83
2022/12/28 11:34:32;;;;;;;5.47;3.30;;;;;;;;;;5025834;28;20037;-81
2022/12/28 11:36:58;;;;;;;4.82;2.17;;;;;;;;;;5035326;28;20035;-82
2022/12/28 11:42:07;;;;;;;3.60;2.10;;;;;;;;;;5031620;28;20570;-82
2022/12/28 11:44:40;;;;;;;6.28;2.90;;;;;;;;;;5000457;28;20037;-81
2022/12/28 11:47:14;;;;;;;6.85;2.60;;;;;;;;;;5029340;28;20032;-81
2022/12/28 11:49:40;;;;;;;6.20;2.40;;;;;;;;;;5046937;28;20466;-82
2022/12/28 11:52:26;;;;;;;5.80;2.92;;;;;;;;;;5047743;28;20115;-82
2022/12/28 11:54:52;;;;;;;6.18;2.33;;;;;;;;;;5032690;28;20037;-81
2022/12/28 11:57:38;;;;;;;5.15;2.55;;;;;;;;;;5047100;28;20029;-82
2022/12/28 12:00:15;;;;;;;6.30;3.53;;;;;;;;;;5032831;28;20045;-80
2022/12/28 12:02:41;;;;;;;5.25;2.60;;;;;;;;;;5048032;28;20047;-80
2022/12/28 12:05:25;;;;;;;5.50;2.60;;;;;;;;;;5030900;28;20021;-82
2022/12/28 12:07:51;;;;;;;6.03;2.42;;;;;;;;;;5025487;28;20047;-83
2022/12/28 12:10:26;;;;;;;5.63;2.95;;;;;;;;;;5028688;28;20739;-82
2022/12/28 12:12:51;;;;;;;7.18;2.60;;;;;;;;;;5044278;28;20022;-82
2022/12/28 12:15:18;;;;;;;5.53;2.80;;;;;;;;;;5037479;28;20044;-82
2022/12/28 12:17:48;;;;;;;5.90;2.80;;;;;;;;;;5029645;28;20084;-82
2022/12/28 12:20:17;;;;;;;7.10;2.40;;;;;;;;;;5026587;28;20029;-83
2022/12/28 12:22:51;;;;;;;6.22;2.40;;;;;;;;;;5013018;28;20024;-82
2022/12/28 12:25:42;;;;;;;4.55;2.22;;;;;;;;;;5029876;28;20063;-82
2022/12/28 12:28:26;;;;;;;4.88;2.67;;;;;;;;;;5041989;28;20875;-82
2022/12/28 12:30:52;;;;;;;4.95;2.35;;;;;;;;;;5045886;28;20094;-82
2022/12/28 12:33:22;;;;;;;5.15;2.47;;;;;;;;;;5038839;28;20020;-83
2022/12/28 12:36:00;;;;;;;5.50;2.67;;;;;;;;;;5012534;28;20037;-82
2022/12/28 12:38:26;;;;;;;6.55;2.40;;;;;;;;;;5029376;28;20041;-81
2022/12/28 12:43:52;;;;;;;5.32;2.22;;;;;;;;;;5032126;28;20143;-82
2022/12/28 12:46:36;;;;;;;7.28;2.38;;;;;;;;;;5045543;28;20021;-83
2022/12/28 12:49:06;;;;;;;7.80;2.50;;;;;;;;;;5042941;28;20029;-82
2022/12/28 12:51:32;;;;;;;5.72;2.25;;;;;;;;;;5030105;28;20029;-82
2022/12/28 12:53:57;;;;;;;;;;;;;;;;;;5012196;28;20508;-82
2022/12/28 12:56:23;;;;;;;6.88;2.25;;;;;;;;;;5029310;28;19955;-82
2022/12/28 13:04:30;;;;;;;6.53;1.80;;;;;;;;;;5041145;28;20037;-83
2022/12/28 13:06:57;;;;;;;5.90;2.13;;;;;;;;;;5033218;28;20431;-83
2022/12/28 13:09:23;;;;;;;6.03;2.15;;;;;;;;;;5029028;28;20044;-83
2022/12/28 13:11:52;;;;;;;;;;;;;;;;;;5028261;28;20078;-81
2022/12/28 13:14:18;;;;;;;6.18;2.60;;;;;;;;;;5049338;28;19912;-83
2022/12/28 13:16:53;;;;;;;4.40;1.63;;;;;;;;;;4985352;28;1348203;-81
2022/12/28 13:19:22;;;;;;;5.32;2.05;;;;;;;;;;5035132;28;20694;-83
2022/12/28 13:27:21;;;;;;;4.93;2.00;;;;;;;;;;5036124;28;20476;-82
2022/12/28 13:29:52;;;;;;;3.65;1.70;;;;;;;;;;5033100;28;20136;-82
2022/12/28 13:32:24;;;;;;;5.22;1.83;;;;;;;;;;5032999;28;20480;-83
2022/12/28 13:34:50;;;;;;;6.85;1.80;;;;;;;;;;5043380;28;20043;-85
2022/12/28 13:40:10;;;;;;;8.18;2.00;;;;;;;;;;5041053;28;20581;-82
2022/12/28 13:43:01;;;;;;;6.78;2.35;;;;;;;;;;5016683;28;20052;-84
2022/12/28 13:45:27;;;;;;;2.88;1.50;;;;;;;;;;5046260;28;20356;-84
2022/12/28 13:47:52;;;;;;;7.00;2.20;;;;;;;;;;5034636;28;20029;-82
2022/12/28 13:50:23;;;;;;;6.03;1.90;;;;;;;;;;5019192;28;20071;-84
2022/12/28 13:52:51;;;;;;;7.15;2.20;;;;;;;;;;5052360;28;20036;-83
2022/12/28 13:55:18;;;;;;;7.45;2.03;;;;;;;;;;5035031;28;20083;-83
2022/12/28 13:57:46;;;;;;;8.35;1.98;;;;;;;;;;5050148;28;20404;-84
2022/12/28 14:00:11;;;;;;;5.45;1.88;;;;;;;;;;5053252;28;20641;-83
2022/12/28 14:02:39;;;;;;;5.22;1.50;;;;;;;;;;5051825;28;20139;-82
2022/12/28 14:05:04;;;;;;;6.43;1.88;;;;;;;;;;5038019;28;20089;-84
2022/12/28 14:07:30;;;;;;;7.30;1.90;;;;;;;;;;5045690;28;20099;-83
2022/12/28 14:09:55;;;;;;;3.30;1.58;;;;;;;;;;5039696;28;20483;-83
2022/12/28 14:12:23;;;;;;;3.30;1.55;;;;;;;;;;5018728;28;20476;-83
2022/12/28 14:14:49;;;;;;;7.55;2.30;;;;;;;;;;5048307;28;20043;-82
2022/12/28 14:17:14;;;;;;;4.88;1.77;;;;;;;;;;5045384;28;20053;-83
2022/12/28 14:19:40;;;;;;;6.65;1.98;;;;;;;;;;5042782;28;20137;-84
2022/12/28 14:22:25;;;;;;;6.95;2.15;;;;;;;;;;5048921;28;20114;-84
2022/12/28 14:25:08;;;;;;;6.28;2.10;;;;;;;;;;5056394;28;20047;-83
2022/12/28 14:27:38;;;;;;;6.45;2.08;;;;;;;;;;5060100;28;20163;-83
2022/12/28 14:30:04;;;;;;;5.35;1.83;;;;;;;;;;5049206;28;20153;-84
2022/12/28 14:32:30;;;;;;;6.78;1.80;;;;;;;;;;5042991;28;20106;-83
2022/12/28 14:34:59;;;;;;;3.88;1.80;;;;;;;;;;5028468;28;20817;-82
2022/12/28 14:37:33;;;;;;;6.60;2.47;;;;;;;;;;5036380;28;20463;-83
2022/12/28 14:40:02;;;;;;;8.35;2.30;;;;;;;;;;5066621;28;20037;-82
2022/12/28 14:42:28;;;;;;;5.75;2.20;;;;;;;;;;5060530;28;20035;-82
2022/12/28 14:44:54;;;;;;;5.15;2.45;;;;;;;;;;5019619;28;20036;-84
2022/12/28 14:47:39;;;;;;;10.27;2.90;;;;;;;;;;5056173;28;20048;-83
2022/12/28 14:50:15;;;;;;;7.57;2.20;;;;;;;;;;5005228;28;20176;-83
2022/12/28 14:52:42;;;;;;;6.30;1.90;;;;;;;;;;5036543;28;20542;-83
2022/12/28 14:55:20;;;;;;;6.35;1.98;;;;;;;;;;5059762;28;20029;-82
2022/12/28 14:57:45;;;;;;;6.53;1.80;;;;;;;;;;5063318;28;20045;-81
2022/12/28 15:03:11;;;;;;;6.55;1.88;;;;;;;;;;5058056;28;20037;-81
2022/12/28 15:05:44;;;;;;;5.75;1.90;;;;;;;;;;5048102;28;20119;-81
2022/12/28 15:08:09;;;;;;;5.35;1.90;;;;;;;;;;5004490;28;20041;-81
2022/12/28 15:10:38;;;;;;;4.45;1.58;;;;;;;;;;5037750;28;20021;-82
2022/12/28 15:13:03;;;;;;;7.55;2.10;;;;;;;;;;5047707;28;20115;-83
2022/12/28 15:15:29;;;;;;;7.03;2.35;;;;;;;;;;5053472;28;20457;-81
2022/12/28 15:17:54;;;;;;;6.10;2.20;;;;;;;;;;5060515;28;20400;-81
2022/12/28 15:20:20;;;;;;;6.55;2.03;;;;;;;;;;5065471;28;20044;-83
2022/12/28 15:22:49;;;;;;;7.50;2.35;;;;;;;;;;5046779;28;20040;-82
2022/12/28 15:25:14;;;;;;;8.10;2.53;;;;;;;;;;5047143;28;20127;-83
2022/12/28 15:27:40;;;;;;;6.38;1.77;;;;;;;;;;5047047;28;20119;-84
2022/12/28 15:32:50;;;;;;;5.43;1.73;;;;;;;;;;5050581;28;20107;-82
2022/12/28 15:37:59;;;;;;;6.00;1.90;;;;;;;;;;5046919;28;20060;-83
2022/12/28 15:40:25;;;;;;;5.22;1.70;;;;;;;;;;5061950;28;20400;-82
2022/12/28 15:42:50;;;;;;;8.02;1.80;;;;;;;;;;5042794;28;20458;-83
2022/12/28 15:45:16;;;;;;;5.45;1.80;;;;;;;;;;5046939;28;20028;-83
2022/12/28 15:55:58;;;;;;;6.53;2.05;;;;;;;;;;5061009;28;20082;-82
2022/12/28 15:58:23;;;;;;;5.82;1.92;;;;;;;;;;5044604;28;20032;-82
2022/12/28 16:00:49;;;;;;;5.10;1.80;;;;;;;;;;5042220;28;20024;-83
2022/12/28 16:03:15;;;;;;;3.55;1.65;;;;;;;;;;5063815;28;20037;-82
2022/12/28 16:05:40;;;;;;;7.00;1.90;;;;;;;;;;5046514;28;20516;-82
2022/12/28 16:08:06;;;;;;;5.93;1.88;;;;;;;;;;5046250;28;20078;-83
2022/12/28 16:10:31;;;;;;;4.65;1.90;;;;;;;;;;5060700;28;20025;-83
2022/12/28 16:12:56;;;;;;;3.78;1.60;;;;;;;;;;5036903;28;20553;-83
2022/12/28 16:15:22;;;;;;;5.45;2.47;;;;;;;;;;5028325;28;20036;-82
2022/12/28 16:17:47;;;;;;;8.55;1.77;;;;;;;;;;5061487;28;20059;-82
2022/12/28 16:20:13;;;;;;;4.80;2.00;;;;;;;;;;5031481;28;20129;-83
2022/12/28 16:22:38;;;;;;;5.53;1.90;;;;;;;;;;5036964;28;20033;-83
2022/12/28 16:25:04;;;;;;;6.40;2.20;;;;;;;;;;5060978;28;20035;-82
2022/12/28 16:27:30;;;;;;;7.13;2.30;;;;;;;;;;5024114;28;20155;-82
2022/12/28 16:29:55;;;;;;;6.88;2.10;;;;;;;;;;5038920;28;20029;-83
2022/12/28 16:32:21;;;;;;;8.52;2.75;;;;;;;;;;5058686;28;20120;-83
2022/12/28 16:34:46;;;;;;;6.90;1.90;;;;;;;;;;5060104;28;20032;-85
2022/12/28 16:37:12;;;;;;;4.28;2.10;;;;;;;;;;5064587;28;20025;-82
2022/12/28 16:39:38;;;;;;;7.90;2.50;;;;;;;;;;5030601;28;20513;-81
2022/12/28 16:42:04;;;;;;;6.65;1.88;;;;;;;;;;5056237;28;20031;-83
2022/12/28 16:44:30;;;;;;;4.70;1.50;;;;;;;;;;5054427;28;20127;-83